Time;durP1;ratioP1;P1;durP2;ratioP2;P2;SDS_P1;SDS_P2;PMS_P1;PMS_P2;Temp;Humidity;BMP_temperature;BMP_pressure;BME280_temperature;BME280_humidity;BME280_pressure;Samples;Min_cycle;Max_cycle;Signal;HPM_P1;HPM_P2
2022/10/15 00:02:09;;;;;;;70.30;42.72;;;12.80;99.90;;;;;;5096742;28;20504;-60
2022/10/15 00:04:35;;;;;;;76.50;44.92;;;12.90;99.90;;;;;;5093510;28;20164;-59
2022/10/15 00:07:01;;;;;;;74.05;45.35;;;13.10;99.90;;;;;;5095702;28;20055;-61
2022/10/15 00:09:27;;;;;;;77.80;45.45;;;13.30;99.90;;;;;;5102443;28;20042;-60
2022/10/15 00:11:52;;;;;;;77.25;45.08;;;12.90;99.90;;;;;;5109722;28;20495;-60
2022/10/15 00:14:18;;;;;;;78.75;45.55;;;13.20;99.90;;;;;;5079470;28;20046;-60
2022/10/15 00:16:44;;;;;;;81.63;47.60;;;13.30;99.90;;;;;;5092429;28;20036;-60
2022/10/15 00:19:09;;;;;;;88.38;50.55;;;13.70;99.90;;;;;;5087346;28;20048;-60
2022/10/15 00:21:36;;;;;;;80.82;46.42;;;13.20;99.90;;;;;;5092632;28;20556;-60
2022/10/15 00:24:03;;;;;;;97.40;50.08;;;13.20;99.90;;;;;;5092630;28;20434;-60
2022/10/15 00:26:29;;;;;;;84.25;46.13;;;13.10;99.90;;;;;;5099936;28;20498;-60
2022/10/15 00:28:59;;;;;;;86.63;46.35;;;12.70;99.90;;;;;;5103786;28;20122;-60
2022/10/15 00:31:26;;;;;;;74.55;45.72;;;13.20;99.90;;;;;;5099267;28;20036;-60
2022/10/15 00:33:54;;;;;;;88.93;46.63;;;13.50;99.90;;;;;;5095537;28;20080;-60
2022/10/15 00:36:23;;;;;;;90.60;46.10;;;13.20;99.90;;;;;;5107669;28;20518;-60
2022/10/15 00:38:50;;;;;;;82.05;45.38;;;12.90;99.90;;;;;;5094317;28;20423;-60
2022/10/15 00:41:22;;;;;;;87.47;48.50;;;13.30;99.90;;;;;;5074599;28;20067;-60
2022/10/15 00:43:56;;;;;;;98.50;51.00;;;;;;;;;;5091823;28;20111;-60
2022/10/15 00:46:27;;;;;;;85.82;46.65;;;13.20;99.90;;;;;;5088042;28;20412;-60
2022/10/15 00:49:13;;;;;;;88.78;48.33;;;;;;;;;;5083419;28;20040;-59
2022/10/15 00:51:43;;;;;;;92.70;47.53;;;13.20;99.90;;;;;;5093533;28;20059;-60
2022/10/15 00:54:10;;;;;;;100.93;49.63;;;13.00;99.90;;;;;;5102072;28;20063;-60
2022/10/15 00:56:37;;;;;;;89.65;47.17;;;;;;;;;;5100595;28;20036;-60
2022/10/15 00:59:04;;;;;;;94.18;48.90;;;;;;;;;;5082417;28;20373;-60
2022/10/15 01:01:29;;;;;;;88.88;46.88;;;13.80;99.90;;;;;;5089060;28;20040;-60
2022/10/15 01:03:56;;;;;;;95.72;48.47;;;12.80;99.90;;;;;;5099097;28;20401;-61
2022/10/15 01:06:23;;;;;;;98.35;47.70;;;13.00;99.90;;;;;;5094462;28;20366;-61
2022/10/15 01:08:49;;;;;;;78.10;43.95;;;13.60;99.90;;;;;;5100110;28;20043;-61
2022/10/15 01:11:31;;;;;;;93.90;48.42;;;12.90;99.90;;;;;;5090444;28;20066;-61
2022/10/15 01:14:24;;;;;;;89.10;46.65;;;12.80;99.90;;;;;;5084228;28;20035;-61
2022/10/15 01:17:00;;;;;;;88.05;45.33;;;13.50;99.90;;;;;;5095036;28;20092;-61
2022/10/15 01:19:54;;;;;;;90.05;45.00;;;13.60;99.90;;;;;;5103427;28;20044;-61
2022/10/15 01:22:28;;;;;;;89.13;46.75;;;13.00;99.90;;;;;;5100714;28;20519;-61
2022/10/15 01:25:09;;;;;;;89.68;46.55;;;;;;;;;;5085673;28;20032;-61
2022/10/15 01:28:16;;;;;;;86.85;46.80;;;13.10;99.90;;;;;;5106915;28;20392;-61
2022/10/15 01:30:45;;;;;;;80.28;44.53;;;12.90;99.90;;;;;;5016323;28;20123;-63
2022/10/15 01:33:35;;;;;;;93.97;45.72;;;12.50;99.90;;;;;;5082309;28;20067;-61
2022/10/15 01:36:19;;;;;;;84.00;47.22;;;12.80;99.90;;;;;;5094942;28;20044;-62
2022/10/15 01:38:50;;;;;;;80.88;46.63;;;12.70;99.90;;;;;;5097779;28;20040;-62
2022/10/15 01:41:28;;;;;;;84.13;46.17;;;13.00;99.90;;;;;;5137030;22;20474;-62
2022/10/15 01:44:06;;;;;;;80.57;45.58;;;13.00;99.90;;;;;;5084077;28;20142;-61
2022/10/15 01:46:53;;;;;;;85.05;44.80;;;;;;;;;;5080633;28;20047;-61
2022/10/15 01:49:21;;;;;;;81.28;44.35;;;;;;;;;;5037513;28;20279;-62
2022/10/15 01:51:48;;;;;;;77.88;42.55;;;;;;;;;;5077691;28;20036;-61
2022/10/15 01:54:17;;;;;;;72.68;42.35;;;12.80;99.90;;;;;;5072088;28;20040;-62
2022/10/15 01:56:48;;;;;;;75.72;42.70;;;12.60;99.90;;;;;;5085741;28;20048;-61
2022/10/15 01:59:17;;;;;;;69.80;39.50;;;12.80;99.90;;;;;;5079087;28;20115;-61
2022/10/15 02:01:43;;;;;;;69.75;37.90;;;;;;;;;;5076458;28;20036;-62
2022/10/15 02:04:22;;;;;;;58.30;35.28;;;12.90;99.90;;;;;;5059980;28;20390;-61
2022/10/15 02:07:04;;;;;;;63.30;37.33;;;;;;;;;;5085840;28;20048;-61
2022/10/15 02:09:41;;;;;;;61.28;34.65;;;13.30;99.90;;;;;;5077499;28;20111;-62
2022/10/15 02:12:11;;;;;;;57.03;31.92;;;;;;;;;;5055542;28;20115;-62
2022/10/15 02:15:00;;;;;;;47.65;31.58;;;;;;;;;;5076641;28;20044;-61
2022/10/15 02:17:53;;;;;;;47.45;30.17;;;13.40;99.90;;;;;;5071153;28;20044;-62
2022/10/15 02:20:27;;;;;;;49.22;31.40;;;13.10;99.90;;;;;;5071804;28;20074;-61
2022/10/15 02:23:01;;;;;;;53.28;30.23;;;;;;;;;;5076932;28;20402;-61
2022/10/15 02:25:27;;;;;;;45.30;28.57;;;;;;;;;;5070513;28;20093;-62
2022/10/15 02:27:55;;;;;;;51.20;31.52;;;;;;;;;;5062459;28;20137;-62
2022/10/15 02:30:21;;;;;;;50.15;31.95;;;13.00;99.90;;;;;;5085930;28;20036;-61
2022/10/15 02:32:52;;;;;;;53.92;30.58;;;13.00;99.90;;;;;;5073600;28;20067;-61
2022/10/15 02:35:19;;;;;;;51.75;31.00;;;13.00;99.90;;;;;;5076583;28;20077;-60
2022/10/15 02:37:49;;;;;;;47.78;29.27;;;13.00;99.90;;;;;;5076538;28;20075;-62
2022/10/15 02:40:15;;;;;;;56.25;32.83;;;13.30;99.90;;;;;;5083380;28;20489;-61
2022/10/15 02:42:41;;;;;;;51.53;30.88;;;12.60;99.90;;;;;;5081837;28;20048;-61
2022/10/15 02:45:07;;;;;;;56.13;32.88;;;12.90;99.90;;;;;;5069908;28;20032;-61
2022/10/15 02:47:33;;;;;;;52.55;30.55;;;;;;;;;;5076790;28;20614;-62
2022/10/15 02:49:59;;;;;;;59.35;33.35;;;13.00;99.90;;;;;;5076233;28;20044;-61
2022/10/15 02:52:25;;;;;;;58.13;31.95;;;;;;;;;;5075215;28;20100;-62
2022/10/15 02:54:51;;;;;;;60.47;32.88;;;13.00;99.90;;;;;;5075021;28;20040;-61
2022/10/15 02:57:16;;;;;;;60.58;35.72;;;12.90;99.90;;;;;;5069536;28;20478;-61
2022/10/15 02:59:42;;;;;;;62.47;36.30;;;13.00;99.90;;;;;;5085870;28;20044;-61
2022/10/15 03:02:08;;;;;;;64.32;37.00;;;;;;;;;;5077144;28;20398;-61
2022/10/15 03:04:34;;;;;;;67.80;37.08;;;;;;;;;;5058128;28;20562;-61
2022/10/15 03:07:00;;;;;;;63.42;38.13;;;;;;;;;;5079075;28;20402;-61
2022/10/15 03:09:26;;;;;;;69.65;39.20;;;12.90;99.90;;;;;;5078014;28;20032;-61
2022/10/15 03:11:51;;;;;;;78.05;41.47;;;13.00;99.90;;;;;;5079925;28;20044;-62
2022/10/15 03:14:17;;;;;;;77.20;41.67;;;13.00;99.90;;;;;;5088841;28;20077;-61
2022/10/15 03:16:43;;;;;;;72.57;40.60;;;12.50;99.90;;;;;;5088692;28;20057;-61
2022/10/15 03:19:08;;;;;;;81.75;44.15;;;12.80;99.90;;;;;;5086384;28;20032;-61
2022/10/15 03:21:34;;;;;;;80.85;43.30;;;;;;;;;;5081270;28;20043;-61
2022/10/15 03:24:00;;;;;;;79.93;42.25;;;13.00;99.90;;;;;;5087561;28;20036;-62
2022/10/15 03:26:26;;;;;;;75.53;42.60;;;;;;;;;;5090742;28;20375;-61
2022/10/15 03:28:52;;;;;;;78.25;43.72;;;13.00;99.90;;;;;;5049855;28;20027;-61
2022/10/15 03:31:17;;;;;;;77.55;41.45;;;13.00;99.90;;;;;;5090787;28;20484;-61
2022/10/15 03:33:43;;;;;;;73.95;40.80;;;13.20;99.90;;;;;;5077268;28;20042;-62
2022/10/15 03:36:09;;;;;;;79.25;42.58;;;13.20;99.90;;;;;;5079082;28;20041;-61
2022/10/15 03:38:35;;;;;;;69.45;40.83;;;;;;;;;;5081350;28;20036;-60
2022/10/15 03:41:01;;;;;;;73.25;40.38;;;;;;;;;;5078586;28;20560;-61
2022/10/15 03:43:27;;;;;;;75.82;40.55;;;13.00;99.90;;;;;;5075696;28;20090;-62
2022/10/15 03:45:52;;;;;;;76.70;43.58;;;13.20;99.90;;;;;;5069686;28;20036;-61
2022/10/15 03:48:19;;;;;;;75.88;43.10;;;;;;;;;;5080326;28;20037;-61
2022/10/15 03:50:46;;;;;;;82.15;44.95;;;12.70;99.90;;;;;;5077918;28;20527;-61
2022/10/15 03:53:12;;;;;;;88.75;44.13;;;12.80;99.90;;;;;;5079239;28;20135;-61
2022/10/15 03:55:38;;;;;;;76.45;41.88;;;;;;;;;;5058808;28;20497;-61
2022/10/15 03:58:04;;;;;;;75.07;40.60;;;12.80;99.90;;;;;;5078068;28;20119;-61
2022/10/15 04:00:31;;;;;;;85.00;44.35;;;;;;;;;;5075196;28;20165;-61
2022/10/15 04:02:58;;;;;;;90.55;46.85;;;;;;;;;;5077493;28;20448;-61
2022/10/15 04:05:26;;;;;;;94.75;45.55;;;;;;;;;;5081079;28;20402;-61
2022/10/15 04:07:52;;;;;;;78.03;42.92;;;12.80;99.90;;;;;;5075785;28;20044;-61
2022/10/15 04:10:17;;;;;;;74.43;38.72;;;12.90;99.90;;;;;;5079509;28;20036;-62
2022/10/15 04:12:46;;;;;;;83.30;44.38;;;12.10;99.90;;;;;;5058396;28;20090;-62
2022/10/15 04:15:12;;;;;;;87.88;44.03;;;12.90;99.90;;;;;;5078096;28;20124;-61
2022/10/15 04:17:40;;;;;;;84.80;44.10;;;;;;;;;;5072988;28;20119;-62
2022/10/15 04:20:07;;;;;;;99.85;48.67;;;12.70;99.90;;;;;;5076919;28;20032;-61
2022/10/15 04:22:32;;;;;;;85.57;44.13;;;12.70;99.90;;;;;;5081145;28;20514;-62
2022/10/15 04:24:58;;;;;;;87.13;43.92;;;12.90;99.90;;;;;;5087864;28;20111;-61
2022/10/15 04:27:24;;;;;;;97.43;46.53;;;;;;;;;;5085859;28;20035;-62
2022/10/15 04:29:50;;;;;;;96.15;47.03;;;12.80;99.90;;;;;;5078037;28;20071;-61
2022/10/15 04:32:18;;;;;;;96.97;46.20;;;13.10;99.90;;;;;;5083563;28;20090;-62
2022/10/15 04:34:45;;;;;;;97.00;49.08;;;12.10;99.90;;;;;;5081922;28;20563;-62
2022/10/15 04:37:11;;;;;;;100.13;48.13;;;;;;;;;;5078236;28;20043;-62
2022/10/15 04:39:37;;;;;;;96.85;46.85;;;;;;;;;;5079176;28;20050;-62
2022/10/15 04:42:03;;;;;;;105.57;49.95;;;;;;;;;;5059418;28;20082;-62
2022/10/15 04:44:29;;;;;;;98.88;47.80;;;;;;;;;;5073555;28;20225;-62
2022/10/15 04:46:55;;;;;;;96.85;47.53;;;12.80;99.90;;;;;;5061530;28;20048;-61
2022/10/15 04:49:21;;;;;;;102.32;51.67;;;12.80;99.90;;;;;;5066277;28;20452;-61
2022/10/15 04:51:47;;;;;;;108.03;49.80;;;12.70;99.90;;;;;;5076749;28;20033;-62
2022/10/15 04:54:12;;;;;;;104.53;49.17;;;12.80;99.90;;;;;;5077726;28;20050;-61
2022/10/15 04:56:39;;;;;;;102.45;49.10;;;;;;;;;;5074847;28;20040;-62
2022/10/15 04:59:08;;;;;;;106.22;53.13;;;;;;;;;;5077185;28;20397;-62
2022/10/15 05:01:34;;;;;;;103.97;50.92;;;;;;;;;;5079681;28;20397;-62
2022/10/15 05:04:00;;;;;;;90.80;47.05;;;12.70;99.90;;;;;;5082126;28;20578;-62
2022/10/15 05:06:26;;;;;;;100.80;50.20;;;12.90;99.90;;;;;;5076472;28;20033;-61
2022/10/15 05:08:52;;;;;;;99.35;47.88;;;;;;;;;;5086280;28;20032;-61
2022/10/15 05:11:24;;;;;;;94.35;46.58;;;12.80;99.90;;;;;;5059279;28;20371;-61
2022/10/15 05:13:51;;;;;;;85.15;44.78;;;12.60;99.90;;;;;;5075016;28;20079;-61
2022/10/15 05:16:24;;;;;;;96.25;48.70;;;;;;;;;;5057889;28;20575;-62
2022/10/15 05:18:51;;;;;;;86.70;46.60;;;;;;;;;;5073316;28;20254;-62
2022/10/15 05:21:18;;;;;;;93.55;48.67;;;;;;;;;;5072869;28;20036;-61
2022/10/15 05:23:44;;;;;;;90.00;45.03;;;12.50;99.90;;;;;;5056074;28;20044;-61
2022/10/15 05:26:15;;;;;;;78.78;43.53;;;;;;;;;;5060967;28;20051;-62
2022/10/15 05:28:40;;;;;;;84.22;46.53;;;12.70;99.90;;;;;;5072770;28;20036;-62
2022/10/15 05:31:15;;;;;;;89.35;46.65;;;;;;;;;;5081870;28;20037;-62
2022/10/15 05:33:41;;;;;;;90.63;48.38;;;12.20;99.90;;;;;;5073446;28;20119;-62
2022/10/15 05:36:10;;;;;;;97.60;47.80;;;12.60;99.90;;;;;;5059385;28;20108;-62
2022/10/15 05:38:39;;;;;;;85.43;48.13;;;;;;;;;;5074311;28;20048;-61
2022/10/15 05:41:05;;;;;;;105.22;50.63;;;;;;;;;;5076281;28;20152;-61
2022/10/15 05:43:31;;;;;;;93.07;47.50;;;13.20;99.90;;;;;;5072575;28;20036;-62
2022/10/15 05:45:57;;;;;;;90.53;47.00;;;12.60;99.90;;;;;;5085610;28;20031;-61
2022/10/15 05:48:23;;;;;;;95.35;49.60;;;12.70;99.90;;;;;;5078621;28;20056;-61
2022/10/15 05:50:49;;;;;;;85.97;46.88;;;12.70;99.90;;;;;;5057308;28;20043;-61
2022/10/15 05:53:14;;;;;;;94.35;47.75;;;13.20;99.90;;;;;;5076747;28;20469;-61
2022/10/15 05:55:40;;;;;;;102.97;50.45;;;12.40;99.90;;;;;;5074146;28;20032;-61
2022/10/15 05:58:06;;;;;;;91.53;46.45;;;12.60;99.90;;;;;;5076066;28;20043;-61
2022/10/15 06:00:32;;;;;;;96.20;49.67;;;;;;;;;;5072892;28;20123;-61
2022/10/15 06:02:58;;;;;;;95.00;49.83;;;;;;;;;;5055477;28;20074;-61
2022/10/15 06:05:24;;;;;;;84.78;45.92;;;12.60;99.90;;;;;;5076729;28;20203;-61
2022/10/15 06:07:50;;;;;;;100.78;50.67;;;13.00;99.90;;;;;;5071924;28;20120;-61
2022/10/15 06:10:16;;;;;;;92.18;48.42;;;;;;;;;;5078599;28;20413;-62
2022/10/15 06:12:43;;;;;;;83.68;45.55;;;;;;;;;;5073725;28;20036;-62
2022/10/15 06:15:09;;;;;;;95.32;47.03;;;12.50;99.90;;;;;;5069234;28;20063;-62
2022/10/15 06:17:35;;;;;;;92.22;49.58;;;13.00;99.90;;;;;;5076897;28;20567;-62
2022/10/15 06:20:01;;;;;;;89.00;49.35;;;;;;;;;;5069870;28;20040;-62
2022/10/15 06:22:29;;;;;;;95.35;49.35;;;;;;;;;;5070437;28;20120;-62
2022/10/15 06:24:55;;;;;;;84.65;47.22;;;;;;;;;;5071612;28;20044;-62
2022/10/15 06:27:21;;;;;;;90.13;50.53;;;12.40;99.90;;;;;;5071361;28;20089;-61
2022/10/15 06:29:49;;;;;;;89.30;49.00;;;12.70;99.90;;;;;;5083827;28;20528;-62
2022/10/15 06:32:15;;;;;;;79.75;43.28;;;12.70;99.90;;;;;;5084572;28;20039;-62
2022/10/15 06:34:40;;;;;;;84.03;47.42;;;13.00;99.90;;;;;;5071952;28;20498;-61
2022/10/15 06:37:06;;;;;;;72.90;42.05;;;12.80;99.90;;;;;;5098358;28;20028;-61
2022/10/15 06:39:32;;;;;;;73.97;42.65;;;;;;;;;;5089231;28;20060;-62
2022/10/15 06:41:57;;;;;;;72.03;42.47;;;12.60;99.90;;;;;;5082646;28;20433;-62
2022/10/15 06:44:23;;;;;;;75.07;42.88;;;12.40;99.90;;;;;;5076614;28;20042;-62
2022/10/15 06:46:49;;;;;;;80.18;44.90;;;11.90;99.90;;;;;;5088513;28;20025;-62
2022/10/15 06:49:15;;;;;;;84.63;45.72;;;;;;;;;;5087289;28;20028;-62
2022/10/15 06:51:44;;;;;;;77.90;43.92;;;12.50;99.90;;;;;;5085226;28;20037;-62
2022/10/15 06:54:09;;;;;;;86.57;46.70;;;12.40;99.90;;;;;;5088453;28;20036;-64
2022/10/15 06:56:35;;;;;;;71.97;41.65;;;;;;;;;;5090502;28;20051;-64
2022/10/15 06:59:01;;;;;;;73.25;42.15;;;12.60;99.90;;;;;;5079587;28;20150;-62
2022/10/15 07:01:27;;;;;;;79.45;45.95;;;12.00;99.90;;;;;;5084331;28;20040;-62
2022/10/15 07:03:53;;;;;;;81.85;44.83;;;12.50;99.90;;;;;;5085580;28;20131;-62
2022/10/15 07:06:18;;;;;;;71.50;41.55;;;12.60;99.90;;;;;;5086368;28;20032;-61
2022/10/15 07:08:44;;;;;;;84.97;46.47;;;12.70;99.90;;;;;;5080644;28;20081;-62
2022/10/15 07:11:13;;;;;;;77.75;45.38;;;;;;;;;;5092060;28;20446;-61
2022/10/15 07:13:39;;;;;;;84.05;47.65;;;12.70;99.90;;;;;;5082798;28;20040;-60
2022/10/15 07:16:05;;;;;;;80.07;45.35;;;;;;;;;;5073484;28;20111;-62
2022/10/15 07:18:32;;;;;;;76.55;45.35;;;;;;;;;;5083574;28;20150;-62
2022/10/15 07:20:58;;;;;;;89.65;49.35;;;12.70;99.90;;;;;;5073717;28;20036;-61
2022/10/15 07:23:24;;;;;;;77.60;44.53;;;12.70;99.90;;;;;;5079694;28;20690;-60
2022/10/15 07:25:50;;;;;;;83.72;46.63;;;;;;;;;;5074857;28;20040;-61
2022/10/15 07:28:16;;;;;;;81.22;46.67;;;;;;;;;;5072394;28;20115;-61
2022/10/15 07:30:41;;;;;;;93.15;50.75;;;12.70;99.90;;;;;;5055168;28;20048;-61
2022/10/15 07:33:07;;;;;;;92.50;50.63;;;13.10;99.90;;;;;;5060149;28;20042;-61
2022/10/15 07:35:33;;;;;;;96.43;50.72;;;12.90;99.90;;;;;;5083501;28;20062;-60
2022/10/15 07:38:01;;;;;;;92.85;49.13;;;;;;;;;;5083214;28;20032;-61
2022/10/15 07:40:27;;;;;;;85.05;48.63;;;;;;;;;;5121331;22;20098;-61
2022/10/15 07:42:57;;;;;;;92.10;49.30;;;13.10;99.90;;;;;;5005817;28;20053;-61
2022/10/15 07:45:23;;;;;;;85.88;48.15;;;;;;;;;;4995727;28;20044;-61
2022/10/15 07:47:49;;;;;;;95.07;49.97;;;12.80;99.90;;;;;;5001428;28;20454;-61
2022/10/15 07:50:15;;;;;;;87.32;47.72;;;13.10;99.90;;;;;;4996982;28;20049;-61
2022/10/15 07:52:40;;;;;;;95.80;47.15;;;13.10;99.90;;;;;;5002516;28;20050;-62
2022/10/15 07:55:06;;;;;;;95.05;46.97;;;13.10;99.90;;;;;;4998931;28;20349;-61
2022/10/15 07:57:32;;;;;;;90.72;47.33;;;13.10;99.90;;;;;;5004502;28;20065;-61
2022/10/15 07:59:58;;;;;;;85.70;46.15;;;13.30;99.90;;;;;;5004420;28;20084;-61
2022/10/15 08:02:24;;;;;;;94.07;46.90;;;13.20;99.90;;;;;;5014727;28;20029;-61
2022/10/15 08:04:50;;;;;;;80.65;44.83;;;13.10;99.90;;;;;;5012249;28;20063;-61
2022/10/15 08:07:16;;;;;;;74.75;38.72;;;13.80;99.90;;;;;;5008296;28;20075;-61
2022/10/15 08:09:42;;;;;;;78.55;38.08;;;13.10;99.90;;;;;;4994063;28;20550;-61
2022/10/15 08:12:07;;;;;;;79.40;37.20;;;13.40;99.90;;;;;;5013038;28;20135;-62
2022/10/15 08:14:35;;;;;;;69.88;34.28;;;13.10;99.90;;;;;;5013026;28;20402;-61
2022/10/15 08:17:04;;;;;;;71.45;35.53;;;13.30;99.90;;;;;;5010130;28;20049;-61
2022/10/15 08:19:30;;;;;;;66.57;29.90;;;13.20;99.90;;;;;;4990824;28;20511;-60
2022/10/15 08:21:56;;;;;;;64.43;30.95;;;13.30;99.90;;;;;;5008338;28;20117;-62
2022/10/15 08:24:22;;;;;;;67.85;33.13;;;13.30;99.90;;;;;;4995407;28;20280;-61
2022/10/15 08:26:48;;;;;;;64.32;31.80;;;13.40;99.90;;;;;;5001897;28;20129;-61
2022/10/15 08:29:14;;;;;;;60.60;34.50;;;13.30;99.90;;;;;;5005088;28;20029;-61
2022/10/15 08:31:40;;;;;;;64.35;32.63;;;12.90;99.90;;;;;;5006678;28;20042;-61
2022/10/15 08:34:06;;;;;;;68.80;35.83;;;13.40;99.90;;;;;;5006863;28;20129;-61
2022/10/15 08:36:32;;;;;;;69.88;36.33;;;13.50;99.90;;;;;;4999897;28;20042;-60
2022/10/15 08:38:57;;;;;;;71.50;34.95;;;14.00;99.90;;;;;;5005993;28;20038;-60
2022/10/15 08:41:29;;;;;;;74.90;36.38;;;;;;;;;;5001995;28;20523;-61
2022/10/15 08:43:54;;;;;;;72.55;35.83;;;13.70;99.90;;;;;;5007819;28;20045;-60
2022/10/15 08:46:30;;;;;;;64.90;34.47;;;;;;;;;;5009552;28;20038;-61
2022/10/15 08:48:58;;;;;;;61.63;36.08;;;13.20;99.90;;;;;;5003169;28;20038;-60
2022/10/15 08:51:37;;;;;;;61.75;34.45;;;13.60;99.90;;;;;;5008403;28;20049;-60
2022/10/15 08:54:05;;;;;;;52.40;31.15;;;;;;;;;;5009275;28;20396;-60
2022/10/15 08:56:35;;;;;;;54.25;32.13;;;14.00;99.90;;;;;;5007379;28;20606;-60
2022/10/15 08:59:10;;;;;;;50.70;30.27;;;13.30;99.90;;;;;;4990501;28;20038;-60
2022/10/15 09:01:55;;;;;;;56.85;31.67;;;13.00;99.90;;;;;;4992532;28;20414;-60
2022/10/15 09:04:26;;;;;;;54.83;29.75;;;13.50;99.90;;;;;;4989959;28;20082;-61
2022/10/15 09:07:12;;;;;;;54.75;31.00;;;;;;;;;;5005044;28;20034;-60
2022/10/15 09:09:59;;;;;;;59.45;34.25;;;13.50;99.90;;;;;;5001182;28;20053;-61
2022/10/15 09:12:48;;;;;;;56.22;32.35;;;14.10;99.90;;;;;;5006782;28;20045;-60
2022/10/15 09:15:16;;;;;;;56.67;33.33;;;;;;;;;;4991909;28;20084;-60
2022/10/15 09:17:45;;;;;;;56.03;32.45;;;13.70;99.90;;;;;;5009049;28;20064;-60
2022/10/15 09:20:17;;;;;;;56.60;31.88;;;13.20;99.90;;;;;;5003659;28;20038;-60
2022/10/15 09:22:44;;;;;;;56.42;32.65;;;13.70;99.90;;;;;;5010599;28;20049;-60
2022/10/15 09:25:18;;;;;;;56.83;34.13;;;;;;;;;;5009660;28;20030;-60
2022/10/15 09:27:46;;;;;;;51.08;32.08;;;14.60;99.90;;;;;;5005915;28;20483;-60
2022/10/15 09:30:41;;;;;;;49.10;30.02;;;14.50;99.90;;;;;;5008394;28;20045;-60
2022/10/15 09:33:36;;;;;;;48.10;29.73;;;14.50;99.90;;;;;;4996360;28;20034;-60
2022/10/15 09:36:29;;;;;;;51.97;32.53;;;13.70;99.90;;;;;;4984831;28;20049;-60
2022/10/15 09:39:12;;;;;;;51.92;33.63;;;14.40;99.90;;;;;;4992249;28;20121;-60
2022/10/15 09:42:08;;;;;;;45.10;27.95;;;13.70;99.90;;;;;;5012813;28;20048;-60
2022/10/15 09:44:38;;;;;;;52.08;29.30;;;13.90;99.90;;;;;;5011136;28;20065;-60
2022/10/15 09:47:28;;;;;;;44.72;28.83;;;13.90;99.90;;;;;;5011789;28;20049;-60
2022/10/15 09:49:55;;;;;;;41.13;24.88;;;;;;;;;;4993844;28;20044;-60
2022/10/15 09:52:29;;;;;;;39.70;23.98;;;;;;;;;;5005881;28;20444;-60
2022/10/15 09:55:01;;;;;;;38.80;23.20;;;;;;;;;;5004238;28;20109;-60
2022/10/15 09:57:29;;;;;;;41.25;23.38;;;13.60;99.90;;;;;;4998936;28;20578;-60
2022/10/15 10:00:00;;;;;;;40.20;23.67;;;13.30;99.90;;;;;;5001971;28;20042;-60
2022/10/15 10:02:26;;;;;;;40.90;22.90;;;13.60;99.90;;;;;;4992972;28;20038;-60
2022/10/15 10:04:53;;;;;;;39.13;21.88;;;13.10;99.90;;;;;;4997721;28;20029;-60
2022/10/15 10:07:30;;;;;;;40.50;23.35;;;13.50;99.90;;;;;;5005312;28;20047;-59
2022/10/15 10:09:59;;;;;;;36.85;22.08;;;13.70;99.90;;;;;;4996328;28;20038;-60
2022/10/15 10:12:29;;;;;;;36.05;19.45;;;14.40;99.90;;;;;;5007663;28;20034;-60
2022/10/15 10:15:02;;;;;;;35.75;19.70;;;14.30;99.90;;;;;;4995591;28;20088;-60
2022/10/15 10:17:30;;;;;;;37.13;20.45;;;13.50;99.90;;;;;;5004670;28;20073;-58
2022/10/15 10:20:14;;;;;;;35.47;20.52;;;14.50;99.90;;;;;;5004852;28;20041;-59
2022/10/15 10:22:42;;;;;;;36.40;20.15;;;;;;;;;;5000186;28;20515;-60
2022/10/15 10:25:36;;;;;;;34.72;19.52;;;14.50;99.90;;;;;;5002520;28;20030;-60
2022/10/15 10:28:08;;;;;;;33.13;18.48;;;13.70;99.90;;;;;;4991550;28;20392;-60
2022/10/15 10:30:56;;;;;;;35.90;19.52;;;14.30;99.90;;;;;;5007105;28;20049;-59
2022/10/15 10:33:30;;;;;;;34.15;19.10;;;;;;;;;;4985608;28;20042;-60
2022/10/15 10:35:56;;;;;;;35.10;20.23;;;14.10;99.90;;;;;;5000276;28;20121;-61
2022/10/15 10:38:26;;;;;;;35.30;20.52;;;13.60;99.90;;;;;;4983005;28;20166;-59
2022/10/15 10:41:04;;;;;;;37.65;19.45;;;;;;;;;;4983671;28;20046;-59
2022/10/15 10:43:31;;;;;;;32.92;19.45;;;13.90;99.90;;;;;;4982089;28;20045;-60
2022/10/15 10:45:57;;;;;;;30.48;19.52;;;;;;;;;;5004463;28;20044;-59
2022/10/15 10:48:28;;;;;;;31.05;18.35;;;;;;;;;;5005396;28;20117;-60
2022/10/15 10:51:08;;;;;;;29.90;17.70;;;13.60;99.90;;;;;;4996405;28;20404;-59
2022/10/15 10:53:43;;;;;;;29.67;18.20;;;14.70;99.90;;;;;;5005110;28;20045;-58
2022/10/15 10:56:12;;;;;;;29.58;16.55;;;14.70;99.90;;;;;;4990519;28;20046;-60
2022/10/15 10:58:38;;;;;;;29.40;17.05;;;13.60;99.90;;;;;;4981963;28;20508;-59
2022/10/15 11:01:03;;;;;;;29.08;16.40;;;14.80;99.90;;;;;;5005390;28;20070;-60
2022/10/15 11:03:49;;;;;;;27.73;16.33;;;14.50;99.90;;;;;;4978528;28;20041;-58
2022/10/15 11:06:28;;;;;;;27.25;16.35;;;14.50;99.90;;;;;;4997128;28;20048;-60
2022/10/15 11:09:19;;;;;;;25.08;16.42;;;14.50;99.90;;;;;;5006004;28;20121;-60
2022/10/15 11:12:05;;;;;;;26.67;16.08;;;14.50;99.90;;;;;;4999722;28;20411;-59
2022/10/15 11:14:52;;;;;;;23.30;14.05;;;15.10;99.90;;;;;;4997239;28;20037;-59
2022/10/15 11:17:50;;;;;;;23.30;14.45;;;15.10;99.90;;;;;;5001502;28;20044;-60
2022/10/15 11:20:47;;;;;;;20.30;12.90;;;14.70;99.90;;;;;;5002965;28;20103;-60
2022/10/15 11:23:34;;;;;;;19.92;13.73;;;15.90;99.90;;;;;;4977841;28;20423;-59
2022/10/15 11:26:36;;;;;;;19.73;13.13;;;15.20;99.90;;;;;;5009791;28;20113;-59
2022/10/15 11:29:28;;;;;;;20.27;12.55;;;16.10;99.90;;;;;;5000093;28;20030;-59
2022/10/15 11:32:01;;;;;;;17.10;11.95;;;15.60;99.90;;;;;;5003643;28;20097;-60
2022/10/15 11:34:49;;;;;;;17.55;12.25;;;15.30;99.90;;;;;;4979613;28;20042;-60
2022/10/15 11:37:55;;;;;;;18.80;11.38;;;15.20;99.90;;;;;;5001645;28;20057;-60
2022/10/15 11:40:35;;;;;;;17.73;11.70;;;15.10;99.90;;;;;;4964756;28;20057;-59
2022/10/15 11:43:04;;;;;;;19.15;11.80;;;16.00;99.90;;;;;;5002459;28;20046;-60
2022/10/15 11:45:47;;;;;;;16.85;12.02;;;;;;;;;;5012460;28;20038;-58
2022/10/15 11:48:45;;;;;;;18.55;12.18;;;16.00;99.90;;;;;;5000784;28;20395;-59
2022/10/15 11:51:35;;;;;;;17.55;11.38;;;15.80;99.90;;;;;;4998124;28;20045;-60
2022/10/15 11:54:16;;;;;;;19.00;11.55;;;15.40;99.90;;;;;;5000951;28;20081;-59
2022/10/15 11:56:47;;;;;;;17.52;11.27;;;14.90;99.90;;;;;;4996867;28;20123;-60
2022/10/15 11:59:15;;;;;;;18.35;11.77;;;14.70;99.90;;;;;;4992989;28;20041;-60
2022/10/15 12:01:51;;;;;;;16.73;10.75;;;15.00;99.90;;;;;;4998115;28;20455;-59
2022/10/15 12:04:46;;;;;;;19.10;10.80;;;15.50;99.90;;;;;;4999790;28;20529;-59
2022/10/15 12:07:21;;;;;;;16.20;11.68;;;16.00;99.90;;;;;;5012614;28;20041;-58
2022/10/15 12:09:51;;;;;;;14.07;9.13;;;16.30;99.90;;;;;;5003416;28;20038;-58
2022/10/15 12:12:36;;;;;;;15.25;10.20;;;;;;;;;;5130199;23;20040;-60
2022/10/15 12:15:02;;;;;;;14.95;10.35;;;15.80;99.90;;;;;;5080517;28;20043;-60
2022/10/15 12:17:41;;;;;;;15.00;10.18;;;16.00;99.90;;;;;;5092758;28;20506;-60
2022/10/15 12:20:12;;;;;;;14.95;9.80;;;16.70;99.90;;;;;;5099259;28;20069;-60
2022/10/15 12:22:52;;;;;;;14.50;9.98;;;16.80;99.90;;;;;;5076271;28;20547;-60
2022/10/15 12:25:32;;;;;;;13.57;9.80;;;16.60;99.90;;;;;;5146651;22;20362;-58
2022/10/15 12:28:07;;;;;;;15.13;9.55;;;15.90;99.90;;;;;;5078842;28;20044;-59
2022/10/15 12:30:36;;;;;;;13.23;9.85;;;16.70;99.90;;;;;;5084482;28;20055;-59
2022/10/15 12:33:03;;;;;;;13.40;10.25;;;;;;;;;;5078323;28;20420;-59
2022/10/15 12:35:35;;;;;;;13.88;9.85;;;16.30;99.90;;;;;;5099195;28;20093;-59
2022/10/15 12:38:30;;;;;;;13.70;9.82;;;16.20;99.90;;;;;;5094825;28;20396;-59
2022/10/15 12:41:07;;;;;;;13.95;10.05;;;15.80;99.90;;;;;;5095050;28;20039;-59
2022/10/15 12:43:36;;;;;;;14.98;9.98;;;16.30;99.90;;;;;;5104445;28;20040;-59
2022/10/15 12:46:05;;;;;;;15.52;10.05;;;16.00;99.90;;;;;;5097524;28;20560;-58
2022/10/15 12:48:32;;;;;;;17.67;11.25;;;15.60;99.90;;;;;;5096795;28;20098;-59
2022/10/15 12:51:20;;;;;;;14.45;10.63;;;15.10;99.90;;;;;;5105414;28;20114;-59
2022/10/15 12:53:50;;;;;;;15.85;11.18;;;16.20;99.90;;;;;;5095726;28;20119;-59
2022/10/15 12:56:15;;;;;;;17.15;10.50;;;15.50;99.90;;;;;;5083157;22;20495;-61
2022/10/15 12:58:52;;;;;;;17.73;12.05;;;15.40;99.90;;;;;;5038911;28;20047;-61
2022/10/15 13:01:17;;;;;;;18.40;12.20;;;14.60;99.90;;;;;;5058424;28;20075;-61
2022/10/15 13:03:52;;;;;;;16.30;12.27;;;15.10;99.90;;;;;;5074154;28;20064;-61
2022/10/15 13:06:22;;;;;;;21.52;13.60;;;15.40;99.90;;;;;;5066181;28;20119;-61
2022/10/15 13:09:07;;;;;;;19.02;13.38;;;15.10;99.90;;;;;;5091678;28;20532;-61
2022/10/15 13:11:53;;;;;;;19.88;13.23;;;;;;;;;;5080034;28;20076;-61
2022/10/15 13:14:37;;;;;;;18.38;13.05;;;15.30;99.90;;;;;;5072293;28;20105;-61